Time;durP1;ratioP1;P1;durP2;ratioP2;P2;SDS_P1;SDS_P2;PMS_P1;PMS_P2;Temp;Humidity;BMP_temperature;BMP_pressure;BME280_temperature;BME280_humidity;BME280_pressure;Samples;Min_cycle;Max_cycle;Signal;HPM_P1;HPM_P2
2024/01/19 00:00:51;;;;;;;3.53;3.23;;;0.40;99.90;;;;;;4981187;28;20436;-69
2024/01/19 00:03:18;;;;;;;5.17;4.10;;;0.50;99.90;;;;;;4974935;28;20475;-67
2024/01/19 00:05:46;;;;;;;8.07;5.60;;;0.50;99.90;;;;;;4979645;28;20438;-68
2024/01/19 00:08:13;;;;;;;7.77;3.67;;;0.50;99.90;;;;;;4979303;28;20433;-67
2024/01/19 00:10:39;;;;;;;3.83;3.13;;;0.50;99.90;;;;;;4980668;28;20516;-67
2024/01/19 00:13:06;;;;;;;16.17;4.60;;;0.50;99.90;;;;;;4981338;28;20470;-68
2024/01/19 00:15:33;;;;;;;4.40;2.97;;;0.40;99.90;;;;;;4981008;28;20445;-68
2024/01/19 00:18:00;;;;;;;3.13;2.80;;;0.30;99.90;;;;;;4980435;28;20845;-67
2024/01/19 00:20:26;;;;;;;4.83;2.90;;;0.40;99.90;;;;;;4980137;28;20425;-67
2024/01/19 00:22:54;;;;;;;5.47;4.37;;;0.30;99.90;;;;;;4976127;28;20437;-68
2024/01/19 00:25:21;;;;;;;4.33;3.60;;;0.30;99.90;;;;;;4994674;23;20475;-69
2024/01/19 00:27:48;;;;;;;4.80;3.80;;;0.30;99.90;;;;;;4985655;28;20441;-68
2024/01/19 00:30:15;;;;;;;3.73;2.77;;;0.20;99.90;;;;;;4999126;28;20431;-68
2024/01/19 00:32:41;;;;;;;8.00;3.77;;;0.30;99.90;;;;;;4991621;28;20465;-68
2024/01/19 00:35:08;;;;;;;6.83;6.23;;;0.30;99.90;;;;;;5000727;28;20482;-68
2024/01/19 00:37:35;;;;;;;3.60;3.23;;;0.20;99.90;;;;;;4992427;28;21011;-68
2024/01/19 00:40:11;;;;;;;3.87;3.50;;;0.20;99.90;;;;;;5003869;28;20470;-68
2024/01/19 00:42:39;;;;;;;4.77;4.37;;;0.20;99.90;;;;;;4986691;28;20567;-68
2024/01/19 00:45:07;;;;;;;2.37;2.27;;;0.20;99.90;;;;;;4998282;28;20483;-68
2024/01/19 00:47:34;;;;;;;5.93;4.03;;;0.10;99.90;;;;;;5003009;28;20453;-68
2024/01/19 00:50:01;;;;;;;6.20;5.70;;;0.10;99.90;;;;;;4996145;28;20500;-68
2024/01/19 00:52:28;;;;;;;5.27;2.53;;;0.10;99.90;;;;;;5002182;28;20799;-68
2024/01/19 00:54:55;;;;;;;4.10;2.60;;;0.20;99.90;;;;;;4996332;28;21308;-68
2024/01/19 00:57:23;;;;;;;5.97;3.33;;;0.20;99.90;;;;;;5003074;28;20469;-68
2024/01/19 00:59:49;;;;;;;3.03;2.73;;;0.20;99.90;;;;;;5001791;28;20453;-68
2024/01/19 01:02:16;;;;;;;4.33;3.20;;;0.10;99.90;;;;;;4998160;28;20435;-68
2024/01/19 01:04:43;;;;;;;6.37;3.90;;;0.10;99.90;;;;;;4998396;28;21686;-68
2024/01/19 01:07:10;;;;;;;3.97;2.97;;;0.00;99.90;;;;;;4995138;28;20466;-68
2024/01/19 01:09:36;;;;;;;5.87;5.10;;;0.00;99.90;;;;;;4999070;28;20465;-67
2024/01/19 01:12:03;;;;;;;4.40;3.63;;;0.10;99.90;;;;;;5000035;28;20467;-67
2024/01/19 01:14:31;;;;;;;3.87;2.50;;;0.10;99.90;;;;;;5003735;28;20484;-67
2024/01/19 01:16:58;;;;;;;5.23;2.57;;;0.10;99.90;;;;;;5002046;28;20428;-67
2024/01/19 01:19:25;;;;;;;11.23;5.93;;;-0.10;99.90;;;;;;5005681;28;20490;-67
2024/01/19 01:21:51;;;;;;;4.90;4.27;;;0.00;99.90;;;;;;4993302;28;20435;-67
2024/01/19 01:24:19;;;;;;;2.17;1.97;;;0.00;99.90;;;;;;5004342;28;20475;-67
2024/01/19 01:26:45;;;;;;;9.23;4.93;;;0.10;99.90;;;;;;4986777;28;20468;-67
2024/01/19 01:29:12;;;;;;;9.50;4.30;;;0.10;99.90;;;;;;5001162;28;20467;-67
2024/01/19 01:31:40;;;;;;;6.43;5.23;;;0.00;99.90;;;;;;5003602;28;20485;-67
2024/01/19 01:34:07;;;;;;;5.07;4.60;;;0.00;99.90;;;;;;5002551;28;20428;-67
2024/01/19 01:36:34;;;;;;;12.50;6.77;;;0.00;99.90;;;;;;5002501;28;20943;-67
2024/01/19 01:39:00;;;;;;;6.87;5.47;;;0.00;99.90;;;;;;5003165;28;20450;-67
2024/01/19 01:41:27;;;;;;;5.33;4.50;;;-0.10;99.90;;;;;;4990208;28;20444;-67
2024/01/19 01:43:54;;;;;;;8.60;5.33;;;0.00;99.90;;;;;;5003369;28;20457;-67
2024/01/19 01:46:21;;;;;;;16.73;8.07;;;0.00;99.90;;;;;;4998532;28;20463;-68
2024/01/19 01:48:49;;;;;;;12.33;5.57;;;0.00;99.90;;;;;;4998655;28;20437;-68
2024/01/19 01:51:15;;;;;;;7.13;5.77;;;0.00;99.90;;;;;;5002197;28;20463;-68
2024/01/19 01:53:42;;;;;;;5.23;4.07;;;-0.10;99.90;;;;;;5005177;28;20467;-68
2024/01/19 01:56:10;;;;;;;17.43;6.27;;;-0.10;99.90;;;;;;5001794;28;20448;-68
2024/01/19 01:58:36;;;;;;;6.80;5.37;;;-0.20;99.90;;;;;;5004986;28;20941;-68
2024/01/19 02:01:03;;;;;;;3.47;3.20;;;-0.30;99.90;;;;;;4988267;28;20491;-68
2024/01/19 02:03:30;;;;;;;8.30;5.60;;;-0.20;99.90;;;;;;4989441;28;20465;-68
2024/01/19 02:05:58;;;;;;;4.23;2.77;;;-0.30;99.90;;;;;;4999165;28;20489;-68
2024/01/19 02:08:25;;;;;;;19.33;9.13;;;-0.30;99.90;;;;;;5004814;28;20436;-68
2024/01/19 02:10:52;;;;;;;5.13;4.63;;;-0.30;99.90;;;;;;5002389;28;20571;-68
2024/01/19 02:13:18;;;;;;;6.60;3.30;;;-0.30;99.90;;;;;;4998559;28;20722;-68
2024/01/19 02:15:45;;;;;;;5.27;4.07;;;-0.30;99.90;;;;;;5001345;28;20448;-68
2024/01/19 02:18:13;;;;;;;6.53;3.80;;;-0.20;99.90;;;;;;5000468;28;20763;-68
2024/01/19 02:20:39;;;;;;;6.10;3.70;;;-0.20;99.90;;;;;;4998372;28;20511;-67
2024/01/19 02:23:13;;;;;;;4.93;3.10;;;-0.20;99.90;;;;;;5003262;28;20457;-68
2024/01/19 02:25:41;;;;;;;12.40;4.33;;;-0.20;99.90;;;;;;4998849;28;20493;-68
2024/01/19 02:28:08;;;;;;;5.90;3.77;;;-0.20;99.90;;;;;;4995585;28;20723;-67
2024/01/19 02:30:37;;;;;;;10.23;6.23;;;-0.20;99.90;;;;;;5001744;28;20455;-67
2024/01/19 02:33:04;;;;;;;13.40;7.60;;;-0.20;99.90;;;;;;4999997;28;20439;-68
2024/01/19 02:35:31;;;;;;;4.27;3.93;;;-0.20;99.90;;;;;;5002301;28;20481;-68
2024/01/19 02:37:58;;;;;;;9.77;5.50;;;-0.20;99.90;;;;;;4998504;28;20443;-67
2024/01/19 02:40:24;;;;;;;9.70;5.83;;;-0.10;99.90;;;;;;5001255;28;20446;-68
2024/01/19 02:42:52;;;;;;;12.83;4.40;;;-0.10;99.90;;;;;;5002046;28;20469;-69
2024/01/19 02:45:19;;;;;;;7.20;5.03;;;-0.20;99.90;;;;;;5002894;28;20458;-68
2024/01/19 02:47:46;;;;;;;7.53;5.93;;;-0.20;99.90;;;;;;4997403;28;20961;-68
2024/01/19 02:50:13;;;;;;;6.67;4.20;;;-0.40;99.90;;;;;;4999443;28;20480;-68
2024/01/19 02:52:39;;;;;;;4.90;4.50;;;-0.50;99.90;;;;;;5001764;28;20489;-68
2024/01/19 02:55:07;;;;;;;3.50;3.27;;;-0.60;99.90;;;;;;4997079;28;20485;-68
2024/01/19 02:57:34;;;;;;;5.37;4.70;;;-0.70;99.90;;;;;;4996829;28;20447;-67
2024/01/19 03:00:03;;;;;;;4.43;4.03;;;-0.60;99.90;;;;;;5000656;28;20432;-67
2024/01/19 03:02:30;;;;;;;2.63;2.40;;;-0.60;99.90;;;;;;4999282;28;20469;-67
2024/01/19 03:04:56;;;;;;;4.33;3.80;;;-0.60;99.90;;;;;;5001555;28;20493;-67
2024/01/19 03:07:23;;;;;;;6.47;5.57;;;-0.60;99.90;;;;;;4998092;28;20458;-67
2024/01/19 03:09:50;;;;;;;13.10;4.80;;;-0.70;99.90;;;;;;5001263;28;20827;-68
2024/01/19 03:12:18;;;;;;;3.83;3.50;;;-0.70;99.90;;;;;;4997974;28;20459;-68
2024/01/19 03:14:45;;;;;;;3.07;2.83;;;-0.70;99.90;;;;;;5001418;28;20813;-67
2024/01/19 03:17:14;;;;;;;9.30;5.77;;;-0.60;99.90;;;;;;4999781;28;20462;-67
2024/01/19 03:19:40;;;;;;;6.43;4.60;;;-0.60;99.90;;;;;;5001983;28;20448;-67
2024/01/19 03:22:07;;;;;;;6.07;5.33;;;-0.50;99.90;;;;;;4999775;28;20463;-68
2024/01/19 03:24:34;;;;;;;6.43;4.50;;;-0.50;99.90;;;;;;5000690;28;20996;-68
2024/01/19 03:27:01;;;;;;;5.37;4.87;;;-0.50;99.90;;;;;;4999210;28;20440;-67
2024/01/19 03:29:28;;;;;;;5.53;3.37;;;-0.40;99.90;;;;;;5003128;28;20459;-67
2024/01/19 03:31:55;;;;;;;5.63;5.07;;;-0.50;99.90;;;;;;4994788;28;20493;-67
2024/01/19 03:34:23;;;;;;;13.40;6.47;;;-0.50;99.90;;;;;;4998545;28;20465;-66
2024/01/19 03:36:50;;;;;;;16.07;10.00;;;-0.50;99.90;;;;;;4998858;28;20455;-67
2024/01/19 03:39:17;;;;;;;11.10;7.87;;;-0.50;99.90;;;;;;5000860;28;20544;-67
2024/01/19 03:41:44;;;;;;;5.90;5.60;;;-0.40;99.90;;;;;;5004347;28;20946;-67
2024/01/19 03:44:13;;;;;;;4.67;4.37;;;-0.40;99.90;;;;;;4988884;28;20457;-68
2024/01/19 03:46:40;;;;;;;5.03;4.53;;;-0.40;99.90;;;;;;4997541;28;20531;-67
2024/01/19 03:49:06;;;;;;;10.43;6.13;;;-0.40;99.90;;;;;;4993268;28;20454;-67
2024/01/19 03:51:34;;;;;;;3.80;3.60;;;-0.40;99.90;;;;;;4997523;28;20463;-67
2024/01/19 03:54:01;;;;;;;8.30;5.53;;;-0.50;99.90;;;;;;4998214;28;20951;-67
2024/01/19 03:56:28;;;;;;;7.70;4.10;;;-0.50;99.90;;;;;;4992094;28;20450;-67
2024/01/19 03:58:54;;;;;;;12.33;6.43;;;-0.50;99.90;;;;;;4987362;28;20468;-67
2024/01/19 04:01:21;;;;;;;3.60;2.33;;;-0.40;99.90;;;;;;4985347;28;20921;-67
2024/01/19 04:03:48;;;;;;;5.47;4.73;;;-0.40;99.90;;;;;;4989477;28;20476;-67
2024/01/19 04:06:15;;;;;;;15.93;5.90;;;-0.30;99.90;;;;;;4990311;28;20485;-67
2024/01/19 04:08:43;;;;;;;7.30;4.70;;;-0.30;99.90;;;;;;4992968;28;20437;-67
2024/01/19 04:11:10;;;;;;;11.27;6.37;;;-0.40;99.90;;;;;;5000067;28;20455;-67
2024/01/19 04:13:37;;;;;;;20.90;5.60;;;-0.40;99.90;;;;;;4991918;28;20466;-68
2024/01/19 04:16:05;;;;;;;1.63;1.53;;;-0.30;99.90;;;;;;4992564;28;20829;-68
2024/01/19 04:18:31;;;;;;;5.43;5.10;;;-0.20;99.90;;;;;;4997396;28;20460;-68
2024/01/19 04:20:58;;;;;;;10.93;6.90;;;-0.20;99.90;;;;;;4991540;28;20460;-68
2024/01/19 04:23:25;;;;;;;5.60;4.40;;;-0.20;99.90;;;;;;4995993;28;20445;-68
2024/01/19 04:25:53;;;;;;;13.60;7.70;;;-0.30;99.90;;;;;;4993628;28;20861;-68
2024/01/19 04:28:19;;;;;;;11.90;6.23;;;-0.30;99.90;;;;;;4999573;28;20490;-68
2024/01/19 04:30:46;;;;;;;11.37;7.90;;;-0.30;99.90;;;;;;4998220;28;20460;-68
2024/01/19 04:33:13;;;;;;;8.60;4.60;;;-0.30;99.90;;;;;;5003999;28;20576;-68
2024/01/19 04:35:40;;;;;;;8.10;5.07;;;-0.20;99.90;;;;;;4991211;28;20966;-68
2024/01/19 04:38:06;;;;;;;16.00;7.13;;;-0.20;99.90;;;;;;4994860;28;20465;-68
2024/01/19 04:40:33;;;;;;;11.20;7.27;;;-0.20;99.90;;;;;;4998657;28;20443;-68
2024/01/19 04:43:01;;;;;;;13.87;6.67;;;-0.30;99.90;;;;;;4995247;28;20476;-68
2024/01/19 04:45:28;;;;;;;6.50;2.83;;;-0.30;99.90;;;;;;4996721;28;20464;-68
2024/01/19 04:47:55;;;;;;;13.23;7.33;;;-0.20;99.90;;;;;;4995771;28;20763;-68
2024/01/19 04:50:21;;;;;;;14.73;6.70;;;-0.20;99.90;;;;;;4995652;28;20590;-68
2024/01/19 04:52:48;;;;;;;15.40;5.67;;;-0.20;99.90;;;;;;4997169;28;20455;-67
2024/01/19 04:55:15;;;;;;;19.50;6.10;;;-0.10;99.90;;;;;;4998765;28;20455;-66
2024/01/19 04:57:41;;;;;;;10.13;7.77;;;-0.20;99.90;;;;;;4997005;28;20462;-67
2024/01/19 05:00:11;;;;;;;16.43;10.80;;;-0.20;99.90;;;;;;4995434;28;20833;-67
2024/01/19 05:02:37;;;;;;;16.17;6.37;;;-0.20;99.90;;;;;;5001729;28;20824;-67
2024/01/19 05:05:04;;;;;;;22.73;9.00;;;-0.10;99.90;;;;;;4999372;28;20448;-67
2024/01/19 05:07:31;;;;;;;5.27;4.93;;;-0.10;99.90;;;;;;5000589;28;20412;-67
2024/01/19 05:09:58;;;;;;;18.83;6.80;;;-0.20;99.90;;;;;;4997867;28;20432;-67
2024/01/19 05:12:25;;;;;;;21.37;4.80;;;-0.20;99.90;;;;;;5004315;28;20962;-67
2024/01/19 05:14:52;;;;;;;10.07;5.70;;;-0.20;99.90;;;;;;5002044;28;20504;-67
2024/01/19 05:17:20;;;;;;;18.87;8.70;;;-0.10;99.90;;;;;;5001639;28;20465;-68
2024/01/19 05:19:46;;;;;;;6.67;4.33;;;0.00;99.90;;;;;;4999922;28;20429;-69
2024/01/19 05:22:13;;;;;;;5.60;3.60;;;0.00;99.90;;;;;;5004802;28;20441;-67
2024/01/19 05:24:41;;;;;;;7.87;4.77;;;0.10;99.90;;;;;;5006845;28;20493;-67
2024/01/19 05:27:08;;;;;;;5.83;4.00;;;0.10;99.90;;;;;;5007009;28;20536;-68
2024/01/19 05:29:34;;;;;;;5.90;5.30;;;0.10;99.90;;;;;;5006390;28;20432;-67
2024/01/19 05:32:01;;;;;;;12.80;9.97;;;0.00;99.90;;;;;;5007769;28;20563;-67
2024/01/19 05:34:29;;;;;;;11.40;4.77;;;0.10;99.90;;;;;;4999210;28;20486;-67
2024/01/19 05:36:56;;;;;;;8.20;4.57;;;0.10;99.90;;;;;;5002659;28;20431;-68
2024/01/19 05:39:23;;;;;;;6.17;5.03;;;0.20;99.90;;;;;;4996345;28;20436;-68
2024/01/19 05:41:50;;;;;;;11.87;6.40;;;0.20;99.90;;;;;;5002789;28;20428;-67
2024/01/19 05:44:16;;;;;;;7.47;5.87;;;0.20;99.90;;;;;;5007385;28;20991;-67
2024/01/19 05:46:43;;;;;;;16.30;5.70;;;0.10;99.90;;;;;;5001107;28;21053;-68
2024/01/19 05:49:10;;;;;;;3.40;3.10;;;0.20;99.90;;;;;;5001642;28;22156;-67
2024/01/19 05:51:38;;;;;;;4.00;3.60;;;0.40;99.90;;;;;;5001538;28;21298;-68
2024/01/19 05:54:05;;;;;;;13.80;6.30;;;0.30;99.90;;;;;;4994405;28;20434;-67
2024/01/19 05:56:31;;;;;;;16.07;9.80;;;0.40;99.90;;;;;;4995149;28;20488;-67
2024/01/19 05:58:58;;;;;;;10.87;8.70;;;0.30;99.90;;;;;;5004438;28;21042;-68
2024/01/19 06:01:25;;;;;;;8.80;7.77;;;0.30;99.90;;;;;;4998597;28;20442;-68
2024/01/19 06:03:52;;;;;;;8.67;7.97;;;0.30;99.90;;;;;;4999693;28;20766;-68
2024/01/19 06:06:19;;;;;;;13.10;5.70;;;0.30;99.90;;;;;;4994403;28;20455;-68
2024/01/19 06:08:47;;;;;;;6.37;4.20;;;0.30;99.90;;;;;;4997465;28;20510;-68
2024/01/19 06:11:14;;;;;;;13.63;6.90;;;0.40;99.90;;;;;;5001651;28;20830;-69
2024/01/19 06:13:41;;;;;;;14.13;5.80;;;0.50;99.90;;;;;;5009198;28;20463;-68
2024/01/19 06:16:07;;;;;;;14.03;6.87;;;0.50;99.90;;;;;;5000660;28;20459;-68
2024/01/19 06:18:34;;;;;;;17.20;8.67;;;0.50;99.90;;;;;;5000159;28;20452;-68
2024/01/19 06:21:01;;;;;;;22.40;8.73;;;0.40;99.90;;;;;;5000943;28;20786;-68
2024/01/19 06:23:28;;;;;;;5.53;5.13;;;0.40;99.90;;;;;;4995620;28;20484;-68
2024/01/19 06:25:56;;;;;;;13.50;9.10;;;0.50;99.90;;;;;;5000949;28;20488;-67
2024/01/19 06:28:23;;;;;;;20.33;8.63;;;0.50;99.90;;;;;;5006949;28;20469;-67
2024/01/19 06:30:49;;;;;;;14.67;6.33;;;0.40;99.90;;;;;;4996517;28;20462;-67
2024/01/19 06:33:16;;;;;;;8.47;4.30;;;0.40;99.90;;;;;;4996085;28;21185;-67
2024/01/19 06:35:43;;;;;;;19.23;7.73;;;0.60;99.90;;;;;;5002614;28;20473;-68
2024/01/19 06:38:10;;;;;;;10.57;8.77;;;0.70;99.90;;;;;;5008112;28;20499;-67
2024/01/19 06:40:36;;;;;;;10.50;7.63;;;0.80;99.90;;;;;;5003016;28;20963;-67
2024/01/19 06:43:05;;;;;;;8.50;7.50;;;0.60;99.90;;;;;;4996667;28;20444;-67
2024/01/19 06:45:31;;;;;;;17.33;8.30;;;0.70;99.90;;;;;;4997880;28;20476;-67
2024/01/19 06:47:58;;;;;;;10.07;6.80;;;0.70;99.90;;;;;;5001224;28;20588;-67
2024/01/19 06:50:25;;;;;;;7.13;3.27;;;0.70;99.90;;;;;;4999774;28;20460;-67
2024/01/19 06:52:52;;;;;;;12.40;8.20;;;0.70;99.90;;;;;;5003130;28;20485;-67
2024/01/19 06:55:19;;;;;;;20.57;7.63;;;0.80;99.90;;;;;;5004917;28;20572;-67
2024/01/19 06:57:45;;;;;;;12.47;7.57;;;0.80;99.90;;;;;;5000648;28;20920;-68
2024/01/19 07:00:17;;;;;;;18.57;8.37;;;0.90;99.90;;;;;;5003326;28;20441;-67
2024/01/19 07:02:47;;;;;;;8.00;5.23;;;1.00;99.90;;;;;;4997773;28;20443;-67
2024/01/19 07:05:13;;;;;;;13.40;6.07;;;1.00;99.90;;;;;;5005301;28;20482;-67
2024/01/19 07:07:41;;;;;;;8.53;4.33;;;1.00;99.90;;;;;;5008958;28;20987;-68
2024/01/19 07:10:08;;;;;;;5.03;4.73;;;0.90;99.90;;;;;;5001807;28;20458;-67
2024/01/19 07:12:34;;;;;;;15.70;7.53;;;0.90;99.90;;;;;;4996506;28;21303;-67
2024/01/19 07:15:01;;;;;;;15.03;7.83;;;1.00;99.90;;;;;;4998768;28;20452;-67
2024/01/19 07:17:29;;;;;;;14.30;6.00;;;1.00;99.90;;;;;;5007267;28;20423;-67
2024/01/19 07:19:57;;;;;;;19.37;11.97;;;0.90;99.90;;;;;;5005379;28;20420;-67
2024/01/19 07:22:24;;;;;;;4.93;4.53;;;0.90;99.90;;;;;;4997394;28;20510;-67
2024/01/19 07:24:50;;;;;;;17.93;8.77;;;1.00;99.90;;;;;;4997237;28;21048;-67
2024/01/19 07:27:17;;;;;;;23.77;6.40;;;1.00;99.90;;;;;;5003790;28;20438;-67
2024/01/19 07:29:44;;;;;;;13.07;8.03;;;1.00;99.90;;;;;;5003497;28;20464;-67
2024/01/19 07:32:11;;;;;;;12.20;8.17;;;0.90;99.90;;;;;;5004732;28;20470;-67
2024/01/19 07:34:39;;;;;;;6.50;4.47;;;1.00;99.90;;;;;;5005074;28;20481;-67
2024/01/19 07:37:06;;;;;;;20.40;10.53;;;1.00;99.90;;;;;;5006623;28;20420;-67
2024/01/19 07:39:34;;;;;;;13.43;9.57;;;1.00;99.90;;;;;;4996168;28;20978;-67
2024/01/19 07:42:00;;;;;;;7.30;6.63;;;1.00;99.90;;;;;;5004910;28;20835;-68
2024/01/19 07:44:27;;;;;;;17.20;8.50;;;1.00;99.90;;;;;;5000744;28;20539;-68
2024/01/19 07:46:54;;;;;;;9.90;6.73;;;0.90;99.90;;;;;;5005280;28;20461;-68
2024/01/19 07:49:21;;;;;;;9.93;6.33;;;1.00;99.90;;;;;;4997798;28;20461;-67
2024/01/19 07:51:49;;;;;;;9.53;6.87;;;1.00;99.90;;;;;;4997249;28;20432;-67
2024/01/19 07:54:17;;;;;;;16.03;9.97;;;1.00;99.90;;;;;;4995953;28;20558;-67
2024/01/19 07:56:44;;;;;;;18.50;6.83;;;1.00;99.90;;;;;;4998659;28;20424;-67
2024/01/19 07:59:11;;;;;;;8.87;5.80;;;1.00;99.90;;;;;;5000508;28;20457;-68
2024/01/19 08:01:39;;;;;;;29.13;10.53;;;1.10;99.90;;;;;;4990645;28;20796;-67
2024/01/19 08:04:05;;;;;;;15.43;10.80;;;1.10;99.90;;;;;;5002607;28;20436;-67
2024/01/19 08:06:32;;;;;;;17.00;8.97;;;1.10;99.90;;;;;;4999310;28;20441;-67
2024/01/19 08:09:00;;;;;;;19.20;10.33;;;1.20;99.90;;;;;;5006726;28;20427;-67
2024/01/19 08:11:27;;;;;;;14.00;9.13;;;1.20;99.90;;;;;;5009074;28;20412;-68
2024/01/19 08:13:53;;;;;;;9.87;7.67;;;1.20;99.90;;;;;;5001478;28;20500;-68
2024/01/19 08:16:20;;;;;;;12.40;7.10;;;1.20;99.90;;;;;;5003232;28;20847;-68
2024/01/19 08:18:47;;;;;;;13.13;6.97;;;1.10;99.90;;;;;;5003016;28;20408;-67
2024/01/19 08:21:14;;;;;;;11.57;6.27;;;1.20;99.90;;;;;;5003245;28;20497;-68
2024/01/19 08:23:40;;;;;;;14.10;7.97;;;1.30;99.90;;;;;;4999894;28;20461;-68
2024/01/19 08:26:09;;;;;;;18.13;7.67;;;1.30;99.90;;;;;;4989673;28;20467;-66
2024/01/19 08:28:36;;;;;;;17.53;6.53;;;1.30;99.90;;;;;;4995944;28;20535;-67
2024/01/19 08:31:02;;;;;;;13.67;7.47;;;1.30;99.90;;;;;;4995579;28;20423;-67
2024/01/19 08:33:29;;;;;;;13.60;8.17;;;1.30;99.90;;;;;;5000671;28;20460;-66
2024/01/19 08:35:56;;;;;;;16.03;11.00;;;1.30;99.90;;;;;;4996635;28;20455;-68
2024/01/19 08:38:23;;;;;;;7.00;4.33;;;1.20;99.90;;;;;;4996727;28;20439;-68
2024/01/19 08:40:50;;;;;;;9.73;7.70;;;1.30;99.90;;;;;;4998549;28;20803;-68
2024/01/19 08:43:18;;;;;;;9.20;6.37;;;1.40;99.90;;;;;;5003992;28;21119;-68
2024/01/19 08:45:44;;;;;;;13.80;10.90;;;1.40;99.90;;;;;;5001476;28;20444;-68
2024/01/19 08:48:12;;;;;;;16.83;8.70;;;1.40;99.90;;;;;;4997316;28;20447;-68
2024/01/19 08:50:39;;;;;;;14.30;6.50;;;1.40;99.90;;;;;;5002672;28;20512;-68
2024/01/19 08:53:06;;;;;;;14.33;9.50;;;1.40;99.90;;;;;;5004286;28;20464;-69
2024/01/19 08:55:33;;;;;;;23.83;9.80;;;1.30;99.90;;;;;;4996956;28;20494;-68
2024/01/19 08:58:00;;;;;;;16.13;10.20;;;1.30;99.90;;;;;;4994703;28;20439;-68
2024/01/19 09:00:28;;;;;;;9.30;7.00;;;1.30;99.90;;;;;;4996288;28;20533;-68
2024/01/19 09:02:55;;;;;;;14.70;6.90;;;1.40;99.90;;;;;;4998292;28;20459;-68
2024/01/19 09:05:21;;;;;;;12.20;8.43;;;1.50;99.90;;;;;;5001639;28;20458;-68
2024/01/19 09:07:48;;;;;;;32.83;8.53;;;1.50;99.90;;;;;;5000864;28;20453;-68
2024/01/19 09:10:15;;;;;;;28.03;9.40;;;1.40;99.90;;;;;;4996278;28;20432;-68
2024/01/19 09:12:42;;;;;;;22.60;10.87;;;1.40;99.90;;;;;;4992832;28;20461;-68
2024/01/19 09:15:09;;;;;;;16.77;7.40;;;1.40;99.90;;;;;;4997832;28;20847;-67
2024/01/19 09:17:37;;;;;;;7.37;4.30;;;1.40;99.90;;;;;;4997496;28;20458;-67
2024/01/19 09:20:05;;;;;;;11.80;4.40;;;1.40;99.90;;;;;;4997548;28;20948;-68
2024/01/19 09:22:31;;;;;;;13.97;6.80;;;1.40;99.90;;;;;;4999501;28;20461;-68
2024/01/19 09:24:58;;;;;;;10.83;8.67;;;1.50;99.90;;;;;;4988732;28;20512;-68
2024/01/19 09:27:25;;;;;;;17.60;6.77;;;1.50;99.90;;;;;;4994090;28;20435;-68
2024/01/19 09:29:51;;;;;;;18.10;6.00;;;1.50;99.90;;;;;;4998807;28;20472;-68
2024/01/19 09:32:18;;;;;;;19.63;8.97;;;1.50;99.90;;;;;;5002424;28;20427;-67
2024/01/19 09:34:47;;;;;;;15.47;7.03;;;1.40;99.90;;;;;;4999443;28;20460;-67
2024/01/19 09:37:13;;;;;;;6.33;5.83;;;1.40;99.90;;;;;;5000160;28;20880;-68
2024/01/19 09:39:40;;;;;;;12.33;6.70;;;1.50;99.90;;;;;;4996726;28;20473;-68
2024/01/19 09:42:12;;;;;;;12.50;7.27;;;1.60;99.90;;;;;;5005522;28;20453;-68
2024/01/19 09:44:45;;;;;;;25.07;11.00;;;1.70;99.90;;;;;;4996494;28;20451;-68
2024/01/19 09:47:18;;;;;;;24.80;10.60;;;1.80;99.90;;;;;;5004430;28;20446;-68
2024/01/19 09:50:01;;;;;;;18.70;10.70;;;1.90;99.90;;;;;;4998659;28;20497;-68
2024/01/19 09:52:43;;;;;;;11.80;7.50;;;2.00;99.90;;;;;;4994665;28;20440;-68
2024/01/19 09:55:12;;;;;;;27.80;12.13;;;2.00;99.90;;;;;;4996236;28;20981;-69
2024/01/19 09:57:45;;;;;;;8.13;3.77;;;2.10;99.90;;;;;;4999847;28;20466;-67
2024/01/19 10:00:13;;;;;;;13.53;8.07;;;2.00;99.90;;;;;;4999117;28;20432;-67
2024/01/19 10:02:45;;;;;;;9.43;6.07;;;1.90;99.90;;;;;;4990472;28;20440;-67
2024/01/19 10:05:13;;;;;;;16.27;8.57;;;1.90;99.90;;;;;;4998412;28;20525;-68
2024/01/19 10:07:42;;;;;;;21.70;11.70;;;1.90;99.90;;;;;;5010057;28;20454;-68
2024/01/19 10:10:09;;;;;;;18.60;10.83;;;2.00;99.90;;;;;;5002394;28;20465;-68
2024/01/19 10:12:37;;;;;;;10.43;5.40;;;2.00;99.90;;;;;;5003558;28;20461;-68
2024/01/19 10:15:05;;;;;;;15.37;7.53;;;1.90;99.90;;;;;;5001070;28;20526;-68
2024/01/19 10:17:32;;;;;;;3.27;2.97;;;1.90;99.90;;;;;;5003347;28;20440;-68
2024/01/19 10:19:59;;;;;;;10.00;6.97;;;1.90;99.90;;;;;;5002547;28;20461;-68
2024/01/19 10:22:28;;;;;;;19.57;8.63;;;1.90;99.90;;;;;;4997892;28;20448;-68
2024/01/19 10:25:03;;;;;;;20.87;9.00;;;1.80;99.90;;;;;;4963422;28;1078459;-68
2024/01/19 10:27:44;;;;;;;15.53;9.30;;;1.80;99.90;;;;;;5000061;28;20684;-68
2024/01/19 10:30:13;;;;;;;19.83;8.17;;;2.00;99.90;;;;;;4998613;28;20496;-68
2024/01/19 10:32:40;;;;;;;14.30;7.90;;;2.10;99.90;;;;;;5005243;28;20481;-68
2024/01/19 10:35:09;;;;;;;11.63;8.77;;;2.00;99.90;;;;;;5005854;28;20465;-68
2024/01/19 10:37:38;;;;;;;8.80;6.13;;;2.10;99.90;;;;;;5003702;28;20465;-69
2024/01/19 10:40:16;;;;;;;18.53;9.83;;;2.00;99.90;;;;;;4999601;28;20461;-68
2024/01/19 10:42:43;;;;;;;20.93;9.57;;;2.10;99.90;;;;;;5009867;28;20452;-68
2024/01/19 10:45:18;;;;;;;21.90;10.97;;;2.10;99.90;;;;;;5002274;28;20478;-68
2024/01/19 10:47:46;;;;;;;19.30;9.63;;;2.00;99.90;;;;;;5001261;28;20423;-68
2024/01/19 10:50:14;;;;;;;15.70;9.63;;;2.10;99.90;;;;;;5001094;28;20495;-68
2024/01/19 10:52:43;;;;;;;13.63;6.53;;;2.00;99.90;;;;;;5000632;28;20522;-68
2024/01/19 10:55:16;;;;;;;10.83;9.77;;;2.10;99.90;;;;;;4997316;28;20460;-68
2024/01/19 10:57:43;;;;;;;5.47;4.93;;;2.10;99.90;;;;;;5001293;28;20904;-68
2024/01/19 11:00:21;;;;;;;10.73;7.40;;;2.00;99.90;;;;;;5000698;28;20427;-68
2024/01/19 11:02:49;;;;;;;19.30;9.03;;;2.10;99.90;;;;;;5005710;28;20415;-68
2024/01/19 11:05:18;;;;;;;8.83;5.80;;;1.90;99.90;;;;;;5002107;28;20444;-67
2024/01/19 11:07:46;;;;;;;36.43;12.03;;;1.90;99.90;;;;;;5003172;28;20441;-68
2024/01/19 11:10:15;;;;;;;14.50;5.67;;;2.00;99.90;;;;;;5000059;28;20448;-67
2024/01/19 11:12:54;;;;;;;25.80;10.43;;;2.00;99.90;;;;;;5001154;28;20451;-67
2024/01/19 11:15:28;;;;;;;4.57;4.07;;;2.00;99.90;;;;;;5003877;28;20463;-68
2024/01/19 11:17:58;;;;;;;9.33;7.23;;;2.10;99.90;;;;;;5005403;28;20808;-69
2024/01/19 11:20:25;;;;;;;7.93;7.20;;;2.20;99.90;;;;;;5001553;28;20424;-68
2024/01/19 11:22:54;;;;;;;10.70;6.10;;;2.30;99.90;;;;;;4993834;28;20444;-68
2024/01/19 11:25:44;;;;;;;7.07;6.43;;;2.40;99.90;;;;;;5005816;28;20561;-68
2024/01/19 11:28:18;;;;;;;9.00;7.10;;;2.20;99.90;;;;;;4998715;28;20512;-68
2024/01/19 11:31:11;;;;;;;13.07;7.23;;;2.20;99.90;;;;;;5000087;28;20488;-68
2024/01/19 11:33:38;;;;;;;9.27;7.80;;;2.20;99.90;;;;;;5000628;28;20503;-68
2024/01/19 11:36:05;;;;;;;14.70;9.10;;;2.30;99.90;;;;;;4999855;28;20507;-68
2024/01/19 11:38:49;;;;;;;12.13;7.10;;;2.20;99.90;;;;;;5002109;28;20420;-67
2024/01/19 11:41:46;;;;;;;13.70;8.73;;;2.20;99.90;;;;;;5005638;28;20941;-68
2024/01/19 11:44:40;;;;;;;14.80;3.70;;;2.30;99.90;;;;;;5003987;28;20939;-68
2024/01/19 11:47:07;;;;;;;32.17;9.87;;;2.50;99.90;;;;;;5001963;28;20441;-68
2024/01/19 11:49:47;;;;;;;9.27;6.43;;;2.40;99.90;;;;;;5006817;28;20424;-68
2024/01/19 11:52:38;;;;;;;24.90;10.53;;;2.20;99.90;;;;;;5002167;28;20440;-68
2024/01/19 11:55:37;;;;;;;12.30;6.43;;;2.50;99.90;;;;;;4996077;28;20469;-68
2024/01/19 11:58:27;;;;;;;11.63;8.37;;;2.50;99.90;;;;;;5003200;28;20422;-68
2024/01/19 12:00:54;;;;;;;8.60;5.63;;;2.80;99.90;;;;;;5004960;28;20479;-68
2024/01/19 12:03:21;;;;;;;9.47;4.77;;;2.70;99.90;;;;;;4995407;28;20440;-68
2024/01/19 12:05:49;;;;;;;6.47;4.20;;;2.70;99.90;;;;;;5000376;28;20478;-68
2024/01/19 12:08:16;;;;;;;11.03;5.97;;;2.90;99.90;;;;;;5006166;28;20428;-68
2024/01/19 12:10:44;;;;;;;12.40;7.17;;;3.00;99.90;;;;;;5004232;28;20460;-66
2024/01/19 12:13:12;;;;;;;18.00;8.63;;;3.00;99.90;;;;;;4998781;28;20487;-69
2024/01/19 12:15:40;;;;;;;12.47;6.80;;;2.90;99.90;;;;;;5005872;28;20479;-68
2024/01/19 12:18:07;;;;;;;19.47;7.37;;;2.70;99.90;;;;;;5003118;28;20452;-68
2024/01/19 12:20:34;;;;;;;20.40;8.83;;;2.80;99.90;;;;;;5001669;28;20436;-67
2024/01/19 12:23:01;;;;;;;9.00;6.57;;;2.70;99.90;;;;;;4994663;28;20428;-67
2024/01/19 12:25:28;;;;;;;6.10;4.87;;;2.50;99.90;;;;;;4996342;28;20530;-67
2024/01/19 12:28:07;;;;;;;12.50;6.57;;;2.30;99.90;;;;;;4998586;28;20451;-67
2024/01/19 12:30:34;;;;;;;16.47;10.23;;;2.30;99.90;;;;;;4991735;28;20902;-67
2024/01/19 12:33:14;;;;;;;11.97;6.13;;;2.60;99.90;;;;;;4994560;28;20466;-68
2024/01/19 12:35:41;;;;;;;13.37;7.20;;;2.80;99.90;;;;;;4993160;28;20487;-68
2024/01/19 12:38:10;;;;;;;7.47;5.57;;;3.00;99.90;;;;;;4999369;28;21230;-68
2024/01/19 12:40:38;;;;;;;10.93;5.20;;;3.00;99.90;;;;;;5001825;28;20430;-69
2024/01/19 12:43:07;;;;;;;8.63;4.20;;;2.90;99.90;;;;;;5004357;28;20428;-68
2024/01/19 12:45:34;;;;;;;5.33;4.83;;;3.00;99.90;;;;;;5000910;28;20485;-68
2024/01/19 12:48:01;;;;;;;14.17;4.70;;;3.30;99.90;;;;;;5006233;28;20472;-68
2024/01/19 12:50:28;;;;;;;28.77;5.87;;;3.30;99.90;;;;;;5004735;28;20999;-67
2024/01/19 12:52:55;;;;;;;15.83;7.90;;;3.30;99.90;;;;;;4990040;28;20468;-67